PST,Max TemperatureF,Mean TemperatureF,Min TemperatureF,Max Dew PointF,MeanDew PointF,Min DewpointF,Max Humidity, Mean Humidity, Min Humidity, Max Sea Level PressureIn, Mean Sea Level PressureIn, Min Sea Level PressureIn, Max VisibilityMiles, Mean VisibilityMiles, Min VisibilityMiles, Max Wind SpeedMPH, Mean Wind SpeedMPH, Max Gust SpeedMPH,PrecipitationIn, CloudCover, Events, WindDirDegrees
2011-11-1,55,45,35,41,37,34,100,79,51,30.55,30.50,30.38,10,9,5,13,7,17,0.00,1,,77
2011-11-2,60,51,42,50,41,30,100,77,31,30.29,30.05,29.96,10,8,2,21,10,26,0.60,3,Rain,163
2011-11-3,51,46,41,43,41,39,100,87,66,29.97,29.91,29.85,10,10,7,13,6,,0.08,4,Rain,147
2011-11-4,50,42,33,43,38,34,100,94,76,30.02,29.98,29.90,10,4,0,12,4,20,0.00,6,Fog-Rain,109
2011-11-5,46,44,42,43,41,37,93,90,81,29.92,29.78,29.70,10,9,5,15,8,21,0.35,8,Rain,122
2011-11-6,51,46,41,46,43,39,100,87,67,30.10,29.95,29.79,10,9,5,13,6,,0.00,6,Rain,120
2011-11-7,53,46,39,48,44,37,100,92,76,30.30,30.26,30.20,10,8,4,10,5,,0.03,6,Rain,153
2011-11-8,51,45,39,46,42,37,100,89,71,30.30,30.26,30.22,10,10,4,9,7,,0.00,5,Rain,106
2011-11-9,60,54,48,50,46,43,88,77,59,30.23,30.20,30.13,10,10,10,12,7,,0.00,4,,92
2011-11-10,60,50,41,46,41,37,93,74,55,30.12,30.06,29.97,10,10,10,13,7,,0.00,0,,83
2011-11-11,59,47,35,50,40,34,100,79,51,29.96,29.83,29.75,10,8,2,23,8,30,0.01,4,Rain,44
2011-11-12,51,46,41,50,44,37,100,83,62,30.02,29.96,29.89,10,6,2,26,12,33,0.26,6,Rain,222
2011-11-13,53,50,46,50,47,45,100,89,76,30.08,30.04,29.95,5,4,2,12,7,17,0.01,8,Rain,211
2011-11-14,53,48,44,46,45,43,100,84,71,30.19,30.11,30.04,10,6,3,10,6,16,0.09,8,Rain,258
2011-11-15,51,46,42,46,43,37,100,90,76,30.29,30.26,30.21,10,10,1,13,4,,0.00,4,,80
2011-11-16,51,46,41,52,47,37,100,94,81,30.21,30.06,29.92,10,5,2,38,16,53,0.83,7,Rain,166
2011-11-17,51,46,42,46,41,37,93,79,62,30.03,29.96,29.78,10,6,3,23,14,34,0.20,8,Rain,255
2011-11-18,44,40,35,37,36,34,100,80,66,29.80,29.74,29.70,10,8,3,25,14,34,0.17,6,Rain,252
2011-11-19,44,40,35,39,36,34,100,91,70,29.85,29.82,29.78,10,10,7,15,5,20,0.04,7,Rain,92
2011-11-20,44,38,33,37,35,32,100,86,71,29.94,29.89,29.84,10,10,10,15,9,17,0.00,0,,90
2011-11-21,50,46,42,48,45,37,100,88,76,29.91,29.80,29.72,10,6,1,38,22,56,0.63,8,Rain,188
2011-11-22,55,52,50,54,51,48,100,93,88,29.76,29.68,29.59,7,4,1,43,35,59,0.90,8,Rain,194
2011-11-23,53,46,39,52,44,37,100,94,87,29.91,29.74,29.50,10,7,2,37,13,53,0.86,7,Rain,199
2011-11-24,50,42,35,48,42,36,100,91,81,29.91,29.83,29.73,10,7,1,39,12,51,0.29,7,Rain,171
2011-11-25,50,44,37,43,40,36,100,81,71,30.42,30.34,30.12,10,9,5,12,6,23,0.00,3,,76
2011-11-26,59,52,44,46,44,43,100,81,59,30.39,30.32,30.22,10,10,4,10,5,,0.00,4,,121
2011-11-27,53,48,44,50,46,45,100,88,76,30.39,30.25,30.14,10,7,1,25,13,36,0.48,7,Rain,185
2011-11-28,50,44,37,45,41,37,100,92,76,30.50,30.45,30.42,10,8,0,10,5,,0.01,3,Fog,75
2011-11-29,50,42,35,45,39,36,100,88,71,30.41,30.38,30.33,10,9,3,17,5,20,0.02,3,Rain,150
2011-11-30,53,46,39,46,44,37,100,89,72,30.67,30.56,30.38,10,6,2,16,7,22,0.02,5,Rain,360